Burnettsville, Indiana
Current Conditions -  °F | °C
As of 12:15 PM on Thursday 27 Nov 2014 (Local Time) from KMCX Reporting Station
Overcast Overcast  
Wind Chill: 16°   Ceiling: 1300
Heat Index: 28°   Visibility: 7mi
Dew Point: 23°   Wind: 15mph
Humidity: 82%   Direction: 290°WNW
Pressure: 30.31"   Gusts: NA
Location:  40.76°N, 86.59°W
Report Text: KMCX 271715Z AUTO 29013KT 7SM OVC013 M02/M05 A3031 RMK AO2 T10251052
Loading
Personal Weather Stations






























Interactive Weather Map New forecast layout! Learn more

10-Day Weather Forecast

Advertisements
Track Severe Weather on mobile